Hauptseite
METAR-TAF:

METAR-TAF

Flughäfen :

Flughafen Stockholm/Arlanda

Stockholm-Arlanda, Schweden

Breite: 59-39N, Länge: 017-57E, Höhe: 38 m

Beobachtung

Neuester Wetterbericht von vor 28 Minuten, um 18:20 UTC
Wind 14 kt aus West/Südwest
Temperatur 7°C
Luftfeuchtigkeit 81%
Luftdruck 1036 hPa
Sichtweite 10 km oder mehr
Durchbrochene Bewölkung in der Höhe von 2000 ft

METAR: ESSA 161820Z 25014KT 9999 BKN020 07/04 Q1036 R01L/0///95 R08/0///95 R01R/0///95 NOSIG

Zeit: 19:48 (18:48 UTC)

Prognose

Neuester Wetterbericht von vor 1 Stunde und 18 Minuten, um 17:30 UTC
Gültige Prognose vom 16 um 18 UTC bis 17 um 18 UTC
Wind 10 kt aus West/Südwest
Sichtweite 10 km oder mehr
Durchbrochene Bewölkung in der Höhe von 2000 ft

TAF: ESSA 161730Z 1618/1718 24010KT 9999 BKN020

Wetterbeobachtungen und Prognosen von mehr als 4000 Flughäfen (METAR und TAF Bericht).

Die verfügbaren Stationen werden durch gelbe und rote Markierungen auf der Karte dargestellt.

Führen Sie die Maus auf sie, um den Namen der Station zu sehen.

Darauf klicken, um die Beobachtung von Wetterbeobachtungen und Prognosen zu sehen.

Um die Karte zu ändern : klicken Sie auf den grünen Tasten mit einem schwarzen Kreuz Zum Vergrößern, auf den grünen Button mit einem Gedankenstrich zu verkleinern, oder auf die grünen Pfeile für benachbarte Karten.


METAR-TAF: